createdAt,value
2019-02-24T00:00:06.366Z,0.00
2019-02-24T00:01:06.253Z,0.00
2019-02-24T00:02:06.243Z,0.00
2019-02-24T00:03:06.252Z,0.00
2019-02-24T00:04:06.127Z,0.00
2019-02-24T00:05:06.120Z,0.00
2019-02-24T00:06:06.009Z,0.00
2019-02-24T00:07:06.000Z,0.00
2019-02-24T00:08:05.995Z,0.00
2019-02-24T00:09:05.882Z,0.00
2019-02-24T00:10:05.899Z,0.00
2019-02-24T00:11:05.758Z,0.00
2019-02-24T00:12:05.762Z,0.00
2019-02-24T00:13:05.647Z,0.00
2019-02-24T00:14:05.654Z,0.00
2019-02-24T00:15:05.650Z,0.00
2019-02-24T00:16:05.521Z,0.00
2019-02-24T00:17:05.520Z,0.00
2019-02-24T00:18:05.410Z,0.00
2019-02-24T00:19:05.404Z,0.00
2019-02-24T00:20:05.407Z,0.00
2019-02-24T00:21:05.277Z,0.00
2019-02-24T00:22:05.295Z,0.00
2019-02-24T00:23:05.164Z,0.00
2019-02-24T00:24:05.161Z,0.00
2019-02-24T00:25:05.159Z,0.00
2019-02-24T00:26:05.049Z,0.00
2019-02-24T00:27:05.035Z,0.00
2019-02-24T00:28:07.123Z,0.00
2019-02-24T00:29:04.921Z,0.00
2019-02-24T00:30:04.797Z,0.00
2019-02-24T00:31:04.795Z,0.00
2019-02-24T00:32:04.796Z,0.00
2019-02-24T00:33:04.672Z,0.00
2019-02-24T00:34:04.686Z,0.00
2019-02-24T00:35:04.640Z,0.00
2019-02-24T00:36:04.569Z,0.00
2019-02-24T00:37:04.432Z,0.00
2019-02-24T00:38:04.434Z,0.00
2019-02-24T00:39:04.434Z,0.00
2019-02-24T00:40:04.313Z,0.00
2019-02-24T00:41:04.312Z,0.00
2019-02-24T00:42:04.205Z,0.00
2019-02-24T00:43:04.196Z,0.00
2019-02-24T00:44:04.193Z,0.00
2019-02-24T00:45:04.075Z,0.00
2019-02-24T00:46:04.079Z,0.00
2019-02-24T00:47:03.949Z,0.00
2019-02-24T00:48:03.955Z,0.00
2019-02-24T00:49:03.834Z,0.00
2019-02-24T00:50:03.833Z,0.00
2019-02-24T00:51:03.831Z,0.00
2019-02-24T00:52:03.720Z,0.00
2019-02-24T00:53:03.714Z,0.00
2019-02-24T00:54:03.590Z,0.00
2019-02-24T00:55:03.604Z,0.00
2019-02-24T00:56:03.602Z,0.00
2019-02-24T00:57:03.468Z,0.00
2019-02-24T00:58:03.474Z,0.00
2019-02-24T00:59:03.349Z,0.00
2019-02-24T01:00:03.347Z,0.00
2019-02-24T01:01:03.236Z,0.00
2019-02-24T01:02:03.229Z,0.00
2019-02-24T01:03:03.230Z,0.00
2019-02-24T01:04:03.114Z,0.00
2019-02-24T01:05:03.108Z,0.00
2019-02-24T01:06:03.070Z,0.00
2019-02-24T01:07:02.988Z,0.00
2019-02-24T01:08:02.989Z,0.00
2019-02-24T01:09:02.867Z,0.00
2019-02-24T01:10:02.874Z,0.00
2019-02-24T01:11:02.777Z,0.00
2019-02-24T01:12:02.748Z,0.00
2019-02-24T01:13:02.628Z,0.00
2019-02-24T01:14:02.629Z,0.00
2019-02-24T01:15:02.626Z,0.00
2019-02-24T01:16:02.514Z,0.00
2019-02-24T01:17:02.510Z,0.00
2019-02-24T01:18:02.388Z,0.00
2019-02-24T01:19:02.384Z,0.00
2019-02-24T01:20:02.386Z,0.00
2019-02-24T01:21:02.266Z,0.00
2019-02-24T01:22:02.272Z,0.00
2019-02-24T01:23:02.143Z,0.00
2019-02-24T01:24:02.144Z,0.00
2019-02-24T01:25:02.106Z,0.00
2019-02-24T01:26:02.023Z,0.00
2019-02-24T01:27:02.021Z,0.00
2019-02-24T01:28:01.915Z,0.00
2019-02-24T01:29:01.904Z,0.00
2019-02-24T01:30:01.816Z,0.00
2019-02-24T01:31:01.795Z,0.00
2019-02-24T01:32:01.781Z,0.00
2019-02-24T01:33:01.662Z,0.00
2019-02-24T01:34:01.660Z,0.00
2019-02-24T01:35:01.540Z,0.00
2019-02-24T01:36:01.542Z,0.00
2019-02-24T01:37:01.425Z,0.00
2019-02-24T01:38:01.423Z,0.00
2019-02-24T01:39:01.420Z,0.00
2019-02-24T01:40:01.298Z,0.00
2019-02-24T01:41:01.304Z,0.00
2019-02-24T01:42:01.180Z,0.00
2019-02-24T01:43:01.185Z,0.00
2019-02-24T01:44:01.177Z,0.00
2019-02-24T01:45:01.064Z,0.00
2019-02-24T01:46:01.060Z,0.00
2019-02-24T01:47:00.940Z,0.00
2019-02-24T01:48:00.953Z,0.00
2019-02-24T01:49:00.822Z,0.00
2019-02-24T01:50:00.820Z,0.00
2019-02-24T01:51:00.824Z,0.00
2019-02-24T01:52:00.701Z,0.00
2019-02-24T01:53:00.695Z,0.00
2019-02-24T01:54:00.579Z,0.00
2019-02-24T01:55:00.621Z,0.00
2019-02-24T01:56:00.462Z,0.00
2019-02-24T01:57:00.457Z,0.00
2019-02-24T01:58:00.457Z,0.00
2019-02-24T01:59:00.337Z,0.00
2019-02-24T02:00:00.336Z,0.00
2019-02-24T02:01:00.214Z,0.00
2019-02-24T02:02:00.216Z,0.00
2019-02-24T02:03:00.232Z,0.00
2019-02-24T02:04:00.108Z,0.00
2019-02-24T02:05:00.279Z,0.00
2019-02-24T02:05:59.985Z,0.00
2019-02-24T02:06:59.981Z,0.00
2019-02-24T02:07:59.856Z,0.00
2019-02-24T02:08:59.864Z,0.00
2019-02-24T02:09:59.856Z,0.00
2019-02-24T02:10:59.738Z,0.00
2019-02-24T02:11:59.778Z,0.00
2019-02-24T02:12:59.630Z,0.00
2019-02-24T02:13:59.618Z,0.00
2019-02-24T02:14:59.576Z,0.00
2019-02-24T02:15:59.497Z,0.00
2019-02-24T02:16:59.491Z,0.00
2019-02-24T02:17:59.371Z,0.00
2019-02-24T02:18:59.388Z,0.00
2019-02-24T02:19:59.260Z,0.00
2019-02-24T02:20:59.252Z,0.00
2019-02-24T02:21:59.269Z,0.00
2019-02-24T02:22:59.148Z,0.00
2019-02-24T02:23:59.134Z,0.00
2019-02-24T02:24:59.011Z,0.00
2019-02-24T02:25:59.015Z,0.00
2019-02-24T02:26:58.892Z,0.00
2019-02-24T02:27:58.890Z,0.00
2019-02-24T02:28:58.893Z,0.00
2019-02-24T02:29:58.772Z,0.00
2019-02-24T02:30:58.773Z,0.00
2019-02-24T02:31:58.650Z,0.00
2019-02-24T02:32:58.654Z,0.00
2019-02-24T02:33:58.530Z,0.00
2019-02-24T02:34:58.529Z,0.00
2019-02-24T02:35:58.537Z,0.00
2019-02-24T02:36:58.409Z,0.00
2019-02-24T02:37:58.409Z,0.00
2019-02-24T02:38:58.289Z,0.00
2019-02-24T02:39:58.296Z,0.00
2019-02-24T02:40:58.287Z,0.00
2019-02-24T02:41:58.168Z,0.00
2019-02-24T02:42:58.169Z,0.00
2019-02-24T02:43:58.049Z,0.00
2019-02-24T02:44:58.055Z,0.00
2019-02-24T02:45:57.928Z,0.00
2019-02-24T02:46:57.927Z,0.00
2019-02-24T02:47:57.926Z,0.00
2019-02-24T02:48:57.810Z,0.00
2019-02-24T02:49:57.819Z,0.00
2019-02-24T02:50:57.691Z,0.00
2019-02-24T02:51:57.686Z,0.00
2019-02-24T02:52:57.565Z,0.00
2019-02-24T02:53:57.577Z,0.00
2019-02-24T02:54:57.570Z,0.00
2019-02-24T02:55:57.444Z,0.00
2019-02-24T02:56:57.448Z,0.00
2019-02-24T02:57:57.326Z,0.00
2019-02-24T02:58:57.328Z,0.00
2019-02-24T02:59:57.330Z,0.00
2019-02-24T03:00:57.202Z,0.00
2019-02-24T03:01:57.203Z,0.00
2019-02-24T03:02:57.094Z,0.00
2019-02-24T03:03:57.081Z,0.00
2019-02-24T03:04:57.053Z,0.00
2019-02-24T03:05:56.966Z,0.00
2019-02-24T03:06:56.965Z,0.00
2019-02-24T03:07:56.856Z,0.00
2019-02-24T03:08:56.840Z,0.00
2019-02-24T03:09:56.729Z,0.00
2019-02-24T03:10:56.722Z,0.00
2019-02-24T03:11:56.602Z,0.00
2019-02-24T03:12:56.599Z,0.00
2019-02-24T03:13:56.603Z,0.00
2019-02-24T03:14:56.493Z,0.00
2019-02-24T03:15:56.479Z,0.00
2019-02-24T03:16:56.358Z,0.00
2019-02-24T03:17:56.358Z,0.00
2019-02-24T03:18:56.323Z,0.00
2019-02-24T03:19:56.239Z,0.00
2019-02-24T03:20:56.246Z,0.00
2019-02-24T03:21:56.118Z,0.00
2019-02-24T03:22:56.221Z,0.00
2019-02-24T03:23:56.006Z,0.00
2019-02-24T03:24:56.082Z,0.00
2019-02-24T03:25:55.997Z,0.00
2019-02-24T03:26:55.877Z,0.00
2019-02-24T03:27:55.877Z,0.00
2019-02-24T03:29:03.884Z,0.00
2019-02-24T03:29:55.764Z,0.00
2019-02-24T03:30:55.637Z,0.00
2019-02-24T03:31:55.646Z,0.00
2019-02-24T03:32:55.644Z,0.00
2019-02-24T03:33:55.517Z,0.00
2019-02-24T03:34:55.517Z,0.00
2019-02-24T03:35:55.396Z,0.00
2019-02-24T03:36:55.399Z,0.00
2019-02-24T03:37:55.400Z,0.00
2019-02-24T03:38:55.274Z,0.00
2019-02-24T03:39:55.276Z,0.00
2019-02-24T03:40:55.154Z,0.00
2019-02-24T03:41:55.156Z,0.00
2019-02-24T03:42:55.032Z,0.00
2019-02-24T03:43:55.034Z,0.00
2019-02-24T03:44:55.028Z,0.00
2019-02-24T03:45:54.926Z,0.00
2019-02-24T03:46:54.916Z,0.00
2019-02-24T03:47:54.799Z,0.00
2019-02-24T03:48:54.799Z,0.00
2019-02-24T03:49:54.680Z,0.00
2019-02-24T03:50:54.676Z,0.00
2019-02-24T03:51:54.674Z,0.00
2019-02-24T03:52:54.551Z,0.00
2019-02-24T03:53:54.552Z,0.00
2019-02-24T03:54:54.440Z,0.00
2019-02-24T03:55:54.513Z,0.00
2019-02-24T03:56:54.317Z,0.00
2019-02-24T03:57:54.325Z,0.00
2019-02-24T03:58:54.314Z,0.00
2019-02-24T03:59:54.202Z,0.00
2019-02-24T04:00:54.204Z,0.00
2019-02-24T04:01:54.071Z,0.00
2019-02-24T04:02:54.068Z,0.00
2019-02-24T04:03:53.953Z,0.00
2019-02-24T04:04:53.946Z,0.00
2019-02-24T04:05:53.952Z,0.00
2019-02-24T04:06:53.829Z,0.00
2019-02-24T04:07:53.830Z,0.00
2019-02-24T04:08:53.713Z,0.00
2019-02-24T04:09:53.706Z,0.00
2019-02-24T04:10:53.675Z,0.00
2019-02-24T04:11:53.587Z,0.00
2019-02-24T04:12:53.588Z,0.00
2019-02-24T04:13:53.470Z,0.00
2019-02-24T04:14:53.466Z,0.00
2019-02-24T04:15:53.344Z,0.00
2019-02-24T04:16:53.350Z,0.00
2019-02-24T04:17:53.344Z,0.00
2019-02-24T04:18:53.225Z,0.00
2019-02-24T04:19:53.226Z,0.00
2019-02-24T04:20:53.116Z,0.00
2019-02-24T04:21:53.110Z,0.00
2019-02-24T04:22:52.985Z,0.00
2019-02-24T04:23:52.986Z,0.00
2019-02-24T04:24:52.987Z,0.00
2019-02-24T04:25:52.863Z,0.00
2019-02-24T04:26:52.865Z,0.00
2019-02-24T04:27:52.742Z,0.00
2019-02-24T04:28:52.744Z,0.00
2019-02-24T04:29:52.632Z,0.00
2019-02-24T04:30:52.622Z,0.00
2019-02-24T04:31:52.629Z,0.00
2019-02-24T04:32:52.514Z,0.00
2019-02-24T04:33:52.503Z,0.00
2019-02-24T04:34:52.402Z,0.00
2019-02-24T04:35:52.381Z,0.00
2019-02-24T04:36:52.265Z,0.00
2019-02-24T04:37:52.268Z,0.00
2019-02-24T04:38:52.274Z,0.00
2019-02-24T04:39:52.141Z,0.00
2019-02-24T04:40:52.155Z,0.00
2019-02-24T04:41:52.022Z,0.00
2019-02-24T04:42:52.019Z,0.00
2019-02-24T04:43:52.016Z,0.00
2019-02-24T04:44:51.900Z,0.00
2019-02-24T04:45:51.900Z,0.00
2019-02-24T04:46:51.793Z,0.00
2019-02-24T04:47:51.783Z,0.00
2019-02-24T04:48:51.675Z,0.00
2019-02-24T04:49:51.661Z,0.00
2019-02-24T04:50:51.662Z,0.00
2019-02-24T04:51:51.541Z,0.00
2019-02-24T04:52:51.537Z,0.00
2019-02-24T04:53:51.435Z,0.00
2019-02-24T04:54:51.422Z,0.00
2019-02-24T04:55:51.297Z,0.00
2019-02-24T04:56:51.304Z,0.00
2019-02-24T04:57:51.338Z,0.00
2019-02-24T04:58:51.181Z,0.00
2019-02-24T04:59:51.180Z,0.00
2019-02-24T05:00:51.060Z,0.00
2019-02-24T05:01:51.057Z,0.00
2019-02-24T05:02:50.937Z,0.00
2019-02-24T05:03:50.939Z,0.00
2019-02-24T05:04:50.944Z,0.00
2019-02-24T05:05:50.818Z,0.00
2019-02-24T05:06:50.823Z,0.00
2019-02-24T05:07:50.710Z,0.00
2019-02-24T05:08:50.694Z,0.00
2019-02-24T05:09:50.580Z,0.00
2019-02-24T05:10:50.581Z,0.00
2019-02-24T05:11:50.585Z,0.00
2019-02-24T05:12:50.465Z,0.00
2019-02-24T05:13:50.460Z,0.00
2019-02-24T05:14:50.332Z,0.00
2019-02-24T05:15:50.335Z,0.00
2019-02-24T05:16:50.330Z,0.00
2019-02-24T05:17:50.214Z,0.00
2019-02-24T05:18:50.214Z,0.00
2019-02-24T05:19:50.095Z,0.00
2019-02-24T05:20:50.092Z,0.00
2019-02-24T05:21:49.981Z,0.00
2019-02-24T05:22:49.977Z,0.00
2019-02-24T05:23:49.935Z,0.00
2019-02-24T05:24:49.856Z,0.00
2019-02-24T05:25:49.863Z,0.00
2019-02-24T05:26:49.736Z,0.00
2019-02-24T05:27:49.732Z,0.00
2019-02-24T05:28:49.614Z,0.00
2019-02-24T05:29:49.615Z,0.00
2019-02-24T05:30:49.620Z,0.00
2019-02-24T05:31:49.495Z,0.00
2019-02-24T05:32:49.498Z,0.00
2019-02-24T05:33:49.379Z,0.00
2019-02-24T05:34:49.378Z,0.00
2019-02-24T05:35:49.248Z,0.00
2019-02-24T05:36:49.251Z,0.00
2019-02-24T05:37:49.251Z,0.00
2019-02-24T05:38:49.130Z,0.00
2019-02-24T05:39:49.131Z,0.00
2019-02-24T05:40:49.008Z,0.00
2019-02-24T05:41:49.013Z,0.00
2019-02-24T05:42:48.892Z,0.00
2019-02-24T05:43:48.888Z,0.00
2019-02-24T05:44:48.902Z,0.00
2019-02-24T05:45:48.769Z,0.00
2019-02-24T05:46:48.777Z,0.00
2019-02-24T05:47:48.651Z,0.00
2019-02-24T05:48:48.650Z,0.00
2019-02-24T05:49:48.531Z,0.00
2019-02-24T05:50:48.525Z,0.00
2019-02-24T05:51:48.532Z,0.00
2019-02-24T05:52:48.410Z,0.00
2019-02-24T05:53:48.407Z,0.00
2019-02-24T05:54:48.287Z,0.00
2019-02-24T05:55:48.330Z,0.00
2019-02-24T05:56:48.167Z,0.00
2019-02-24T05:57:48.178Z,0.00
2019-02-24T05:58:48.168Z,0.00
2019-02-24T05:59:55.049Z,0.00
2019-02-24T06:00:48.054Z,0.00
2019-02-24T06:01:47.928Z,0.00
2019-02-24T06:02:47.930Z,0.00
2019-02-24T06:03:47.808Z,0.00
2019-02-24T06:04:47.804Z,4.00
2019-02-24T06:05:47.807Z,0.00
2019-02-24T06:06:47.681Z,4.00
2019-02-24T06:07:47.684Z,4.00
2019-02-24T06:08:47.564Z,4.00
2019-02-24T06:09:47.571Z,8.00
2019-02-24T06:10:47.562Z,8.00
2019-02-24T06:11:47.441Z,8.00
2019-02-24T06:12:47.443Z,12.00
2019-02-24T06:13:47.322Z,12.00
2019-02-24T06:14:47.320Z,12.00
2019-02-24T06:15:47.201Z,16.00
2019-02-24T06:16:47.208Z,20.00
2019-02-24T06:17:47.204Z,20.00
2019-02-24T06:18:47.082Z,24.00
2019-02-24T06:19:47.082Z,28.00
2019-02-24T06:20:46.988Z,32.00
2019-02-24T06:21:46.958Z,40.00
2019-02-24T06:22:46.841Z,44.00
2019-02-24T06:23:46.838Z,48.00
2019-02-24T06:24:46.842Z,52.00
2019-02-24T06:25:46.750Z,64.00
2019-02-24T06:26:46.719Z,68.00
2019-02-24T06:27:46.598Z,80.00
2019-02-24T06:28:46.598Z,88.00
2019-02-24T06:29:46.480Z,96.00
2019-02-24T06:30:46.485Z,108.00
2019-02-24T06:31:46.477Z,116.00
2019-02-24T06:32:46.362Z,128.00
2019-02-24T06:33:46.362Z,140.00
2019-02-24T06:34:46.236Z,152.00
2019-02-24T06:35:46.236Z,164.00
2019-02-24T06:36:46.116Z,176.00
2019-02-24T06:37:46.118Z,192.00
2019-02-24T06:38:46.124Z,208.00
2019-02-24T06:39:46.013Z,220.00
2019-02-24T06:40:45.994Z,236.00
2019-02-24T06:41:45.882Z,248.00
2019-02-24T06:42:45.874Z,268.00
2019-02-24T06:43:45.760Z,280.00
2019-02-24T06:44:45.758Z,300.00
2019-02-24T06:45:45.758Z,312.00
2019-02-24T06:46:45.642Z,328.00
2019-02-24T06:47:45.638Z,344.00
2019-02-24T06:48:45.519Z,356.00
2019-02-24T06:49:45.518Z,372.00
2019-02-24T06:50:45.396Z,384.00
2019-02-24T06:51:45.401Z,400.00
2019-02-24T06:52:45.398Z,412.00
2019-02-24T06:53:45.278Z,428.00
2019-02-24T06:54:45.272Z,444.00
2019-02-24T06:55:45.159Z,456.00
2019-02-24T06:56:45.157Z,464.00
2019-02-24T06:57:45.114Z,480.00
2019-02-24T06:58:45.031Z,488.00
2019-02-24T06:59:45.032Z,504.00
2019-02-24T07:00:44.913Z,512.00
2019-02-24T07:01:44.919Z,524.00
2019-02-24T07:02:44.790Z,540.00
2019-02-24T07:03:44.789Z,548.00
2019-02-24T07:04:44.798Z,560.00
2019-02-24T07:05:44.680Z,572.00
2019-02-24T07:06:44.673Z,584.00
2019-02-24T07:07:44.553Z,596.00
2019-02-24T07:08:44.550Z,608.00
2019-02-24T07:09:44.436Z,620.00
2019-02-24T07:10:44.432Z,652.00
2019-02-24T07:11:44.442Z,668.00
2019-02-24T07:12:44.329Z,684.00
2019-02-24T07:13:44.324Z,704.00
2019-02-24T07:14:44.196Z,720.00
2019-02-24T07:15:44.188Z,740.00
2019-02-24T07:16:44.152Z,756.00
2019-02-24T07:17:44.074Z,784.00
2019-02-24T07:18:44.069Z,812.00
2019-02-24T07:19:43.963Z,848.00
2019-02-24T07:20:43.946Z,900.00
2019-02-24T07:21:43.832Z,976.00
2019-02-24T07:22:43.827Z,1036.00
2019-02-24T07:23:43.708Z,1088.00
2019-02-24T07:24:43.709Z,1164.00
2019-02-24T07:25:43.707Z,1268.00
2019-02-24T07:26:43.590Z,1424.00
2019-02-24T07:27:43.588Z,1588.00
2019-02-24T07:28:43.464Z,1748.00
2019-02-24T07:29:43.475Z,1904.00
2019-02-24T07:30:43.436Z,2064.00
2019-02-24T07:31:43.347Z,2228.00
2019-02-24T07:32:43.355Z,2388.00
2019-02-24T07:33:43.231Z,2508.00
2019-02-24T07:34:43.227Z,2624.00
2019-02-24T07:35:43.109Z,2744.00
2019-02-24T07:36:43.106Z,2848.00
2019-02-24T07:37:43.109Z,2944.00
2019-02-24T07:38:42.988Z,2996.00
2019-02-24T07:39:42.984Z,3068.00
2019-02-24T07:40:42.870Z,3128.00
2019-02-24T07:41:42.869Z,3176.00
2019-02-24T07:42:42.743Z,3220.00
2019-02-24T07:43:42.748Z,3264.00
2019-02-24T07:44:42.753Z,3304.00
2019-02-24T07:45:42.623Z,3316.00
2019-02-24T07:46:42.627Z,3336.00
2019-02-24T07:47:42.507Z,3388.00
2019-02-24T07:48:42.514Z,3468.00
2019-02-24T07:49:42.499Z,3536.00
2019-02-24T07:50:42.382Z,3628.00
2019-02-24T07:51:42.395Z,3740.00
2019-02-24T07:52:42.266Z,3852.00
2019-02-24T07:53:42.264Z,3876.00
2019-02-24T07:54:42.143Z,3868.00
2019-02-24T07:55:42.139Z,3892.00
2019-02-24T07:56:42.144Z,3928.00
2019-02-24T07:57:42.019Z,3976.00
2019-02-24T07:58:42.020Z,4024.00
2019-02-24T07:59:41.901Z,4020.00
2019-02-24T08:00:41.902Z,4008.00
2019-02-24T08:01:42.578Z,3980.00
2019-02-24T08:02:41.783Z,3976.00
2019-02-24T08:03:41.780Z,3984.00
2019-02-24T08:04:41.659Z,3984.00
2019-02-24T08:05:41.657Z,3996.00
2019-02-24T08:06:41.667Z,3960.00
2019-02-24T08:07:41.539Z,3900.00
2019-02-24T08:08:41.548Z,3860.00
2019-02-24T08:09:41.427Z,3864.00
2019-02-24T08:10:41.417Z,3880.00
2019-02-24T08:11:41.299Z,3832.00
2019-02-24T08:12:41.308Z,3764.00
2019-02-24T08:13:41.300Z,3720.00
2019-02-24T08:14:41.181Z,3704.00
2019-02-24T08:15:41.177Z,3704.00
2019-02-24T08:16:41.056Z,3696.00
2019-02-24T08:17:41.062Z,3668.00
2019-02-24T08:18:49.051Z,3572.00
2019-02-24T08:19:40.935Z,3420.00
2019-02-24T08:20:40.949Z,3272.00
2019-02-24T08:21:40.820Z,3196.00
2019-02-24T08:22:40.814Z,3116.00
2019-02-24T08:23:40.695Z,3008.00
2019-02-24T08:24:40.693Z,2916.00
2019-02-24T08:25:40.699Z,2852.00
2019-02-24T08:26:40.573Z,2800.00
2019-02-24T08:27:40.573Z,2748.00
2019-02-24T08:28:40.454Z,2696.00
2019-02-24T08:29:40.457Z,2672.00
2019-02-24T08:30:41.842Z,2660.00
2019-02-24T08:31:40.335Z,2628.00
2019-02-24T08:32:40.331Z,2560.00
2019-02-24T08:33:40.213Z,2476.00
2019-02-24T08:34:40.213Z,2404.00
2019-02-24T08:35:40.172Z,2356.00
2019-02-24T08:36:40.103Z,2336.00
2019-02-24T08:37:40.091Z,2332.00
2019-02-24T08:38:40.500Z,2324.00
2019-02-24T08:39:39.973Z,2312.00
2019-02-24T08:40:39.934Z,2300.00
2019-02-24T08:41:39.852Z,2300.00
2019-02-24T08:42:39.855Z,2296.00
2019-02-24T08:43:39.733Z,2276.00
2019-02-24T08:44:39.734Z,2264.00
2019-02-24T08:45:39.616Z,2248.00
2019-02-24T08:46:39.608Z,2244.00
2019-02-24T08:47:42.609Z,2244.00
2019-02-24T08:48:39.488Z,2248.00
2019-02-24T08:49:39.490Z,2252.00
2019-02-24T08:50:39.367Z,2256.00
2019-02-24T08:51:39.374Z,2256.00
2019-02-24T08:52:39.371Z,2260.00
2019-02-24T08:53:39.249Z,2264.00
2019-02-24T08:54:39.252Z,2264.00
2019-02-24T08:55:39.129Z,2268.00
2019-02-24T08:56:39.128Z,2264.00
2019-02-24T08:57:39.125Z,2264.00
2019-02-24T08:58:39.018Z,2264.00
2019-02-24T08:59:39.013Z,2264.00
2019-02-24T09:00:38.895Z,2268.00
2019-02-24T09:01:38.885Z,2264.00
2019-02-24T09:02:38.885Z,2268.00
2019-02-24T09:03:38.770Z,2268.00
2019-02-24T09:04:38.767Z,2276.00
2019-02-24T09:05:38.642Z,2276.00
2019-02-24T09:06:38.651Z,2280.00
2019-02-24T09:07:38.651Z,2276.00
2019-02-24T09:08:38.532Z,2276.00
2019-02-24T09:09:38.529Z,2272.00
2019-02-24T09:10:38.410Z,2272.00
2019-02-24T09:11:38.406Z,2284.00
2019-02-24T09:12:38.406Z,2284.00
2019-02-24T09:13:38.282Z,2292.00
2019-02-24T09:14:38.284Z,2300.00
2019-02-24T09:15:38.167Z,2304.00
2019-02-24T09:16:38.171Z,2312.00
2019-02-24T09:17:38.176Z,2316.00
2019-02-24T09:18:38.045Z,2308.00
2019-02-24T09:19:38.060Z,2296.00
2019-02-24T09:20:38.007Z,2288.00
2019-02-24T09:21:37.926Z,2288.00
2019-02-24T09:22:37.920Z,2276.00
2019-02-24T09:23:37.805Z,2268.00
2019-02-24T09:24:37.798Z,2260.00
2019-02-24T09:25:37.684Z,2248.00
2019-02-24T09:26:37.683Z,2236.00
2019-02-24T09:27:37.681Z,2232.00
2019-02-24T09:28:37.559Z,2224.00
2019-02-24T09:29:37.559Z,2216.00
2019-02-24T09:30:37.438Z,2204.00
2019-02-24T09:31:37.439Z,2196.00
2019-02-24T09:32:37.439Z,2196.00
2019-02-24T09:33:37.321Z,2192.00
2019-02-24T09:34:37.322Z,2192.00
2019-02-24T09:35:37.313Z,2184.00
2019-02-24T09:36:37.204Z,2176.00
2019-02-24T09:37:37.200Z,2172.00
2019-02-24T09:38:37.077Z,2164.00
2019-02-24T09:39:37.076Z,2156.00
2019-02-24T09:40:37.077Z,2148.00
2019-02-24T09:41:36.956Z,2144.00
2019-02-24T09:42:36.960Z,2136.00
2019-02-24T09:43:36.836Z,2128.00
2019-02-24T09:44:36.839Z,2124.00
2019-02-24T09:45:36.838Z,2124.00
2019-02-24T09:46:36.723Z,2120.00
2019-02-24T09:47:46.078Z,2120.00
2019-02-24T09:48:36.594Z,2124.00
2019-02-24T09:49:36.600Z,2120.00
2019-02-24T09:50:36.594Z,2112.00
2019-02-24T09:51:36.475Z,2108.00
2019-02-24T09:52:36.474Z,2104.00
2019-02-24T09:53:36.353Z,1436.00
2019-02-24T09:54:36.364Z,2236.00
2019-02-24T09:55:36.353Z,2224.00
2019-02-24T09:56:36.233Z,2220.00
2019-02-24T09:57:37.093Z,2204.00
2019-02-24T09:58:36.232Z,2192.00
2019-02-24T09:59:36.113Z,2180.00
2019-02-24T10:00:36.120Z,2168.00
2019-02-24T10:01:35.992Z,2156.00
2019-02-24T10:02:35.991Z,2160.00
2019-02-24T10:03:36.003Z,2132.00
2019-02-24T10:04:35.873Z,2104.00
2019-02-24T10:05:35.878Z,2088.00
2019-02-24T10:06:35.754Z,2072.00
2019-02-24T10:07:35.757Z,2060.00
2019-02-24T10:08:35.758Z,2056.00
2019-02-24T10:09:35.690Z,2048.00
2019-02-24T10:10:35.634Z,2040.00
2019-02-24T10:11:35.591Z,2032.00
2019-02-24T10:12:35.519Z,2032.00
2019-02-24T10:13:35.509Z,2024.00
2019-02-24T10:14:35.388Z,2016.00
2019-02-24T10:15:35.392Z,2008.00
2019-02-24T10:16:35.388Z,2000.00
2019-02-24T10:17:35.266Z,2020.00
2019-02-24T10:18:35.267Z,2008.00
2019-02-24T10:19:35.264Z,2000.00
2019-02-24T10:20:35.151Z,1996.00
2019-02-24T10:21:35.149Z,1988.00
2019-02-24T10:22:35.030Z,1984.00
2019-02-24T10:23:35.027Z,1972.00
2019-02-24T10:24:35.028Z,1960.00
2019-02-24T10:25:34.907Z,1944.00
2019-02-24T10:26:34.905Z,1928.00
2019-02-24T10:27:34.787Z,1904.00
2019-02-24T10:28:34.795Z,1884.00
2019-02-24T10:29:34.786Z,1868.00
2019-02-24T10:30:34.681Z,1856.00
2019-02-24T10:31:34.670Z,1848.00
2019-02-24T10:32:34.544Z,1840.00
2019-02-24T10:33:34.546Z,1832.00
2019-02-24T10:34:34.548Z,1828.00
2019-02-24T10:35:34.426Z,1824.00
2019-02-24T10:36:34.428Z,1816.00
2019-02-24T10:37:34.440Z,1816.00
2019-02-24T10:38:34.306Z,1808.00
2019-02-24T10:39:34.302Z,1804.00
2019-02-24T10:40:34.183Z,1784.00
2019-02-24T10:41:34.182Z,1764.00
2019-02-24T10:42:34.186Z,1756.00
2019-02-24T10:43:34.061Z,1744.00
2019-02-24T10:44:34.062Z,1744.00
2019-02-24T10:45:34.067Z,1740.00
2019-02-24T10:46:33.948Z,1736.00
2019-02-24T10:47:33.942Z,1732.00
2019-02-24T10:48:33.821Z,1728.00
2019-02-24T10:49:33.821Z,1716.00
2019-02-24T10:50:33.824Z,1684.00
2019-02-24T10:51:33.699Z,1688.00
2019-02-24T10:52:33.707Z,1684.00
2019-02-24T10:53:33.708Z,1684.00
2019-02-24T10:54:33.584Z,1676.00
2019-02-24T10:55:33.583Z,1676.00
2019-02-24T10:56:33.547Z,1672.00
2019-02-24T10:57:33.464Z,1664.00
2019-02-24T10:58:34.919Z,1660.00
2019-02-24T10:59:33.340Z,1660.00
2019-02-24T11:00:33.340Z,1656.00
2019-02-24T11:01:33.341Z,1648.00
2019-02-24T11:02:33.219Z,1640.00
2019-02-24T11:03:33.228Z,1640.00
2019-02-24T11:04:33.096Z,1636.00
2019-02-24T11:05:33.110Z,1636.00
2019-02-24T11:06:33.142Z,1640.00
2019-02-24T11:07:32.984Z,1644.00
2019-02-24T11:08:32.979Z,1668.00
2019-02-24T11:09:32.977Z,1676.00
2019-02-24T11:10:32.856Z,1680.00
2019-02-24T11:11:32.861Z,1680.00
2019-02-24T11:12:32.737Z,1684.00
2019-02-24T11:13:32.748Z,1684.00
2019-02-24T11:14:32.738Z,1684.00
2019-02-24T11:15:32.616Z,1696.00
2019-02-24T11:16:32.614Z,1700.00
2019-02-24T11:17:32.617Z,1708.00
2019-02-24T11:18:32.495Z,1716.00
2019-02-24T11:19:32.502Z,1716.00
2019-02-24T11:20:32.380Z,1712.00
2019-02-24T11:21:32.382Z,1716.00
2019-02-24T11:22:35.012Z,1724.00
2019-02-24T11:23:32.253Z,1744.00
2019-02-24T11:24:32.254Z,1756.00
2019-02-24T11:25:32.258Z,1768.00
2019-02-24T11:26:32.133Z,1780.00
2019-02-24T11:27:32.220Z,1796.00
2019-02-24T11:28:32.017Z,1816.00
2019-02-24T11:29:32.028Z,1836.00
2019-02-24T11:30:32.012Z,1844.00
2019-02-24T11:31:38.202Z,1844.00
2019-02-24T11:32:31.892Z,1848.00
2019-02-24T11:33:31.890Z,1860.00
2019-02-24T11:34:31.778Z,1880.00
2019-02-24T11:35:31.769Z,1904.00
2019-02-24T11:36:31.657Z,1928.00
2019-02-24T11:37:32.447Z,1944.00
2019-02-24T11:38:31.650Z,1964.00
2019-02-24T11:39:31.534Z,1988.00
2019-02-24T11:40:31.538Z,2012.00
2019-02-24T11:41:31.533Z,2052.00
2019-02-24T11:42:31.408Z,2100.00
2019-02-24T11:43:31.408Z,2144.00
2019-02-24T11:44:31.369Z,2188.00
2019-02-24T11:45:31.287Z,2240.00
2019-02-24T11:46:31.293Z,2292.00
2019-02-24T11:47:31.168Z,2344.00
2019-02-24T11:48:31.169Z,2384.00
2019-02-24T11:49:31.168Z,2404.00
2019-02-24T11:50:31.177Z,2404.00
2019-02-24T11:51:31.055Z,2364.00
2019-02-24T11:52:31.010Z,2328.00
2019-02-24T11:53:30.933Z,2328.00
2019-02-24T11:54:30.926Z,2336.00
2019-02-24T11:55:31.371Z,2336.00
2019-02-24T11:56:30.810Z,2328.00
2019-02-24T11:57:30.802Z,2284.00
2019-02-24T11:58:30.698Z,2260.00
2019-02-24T11:59:30.690Z,2240.00
2019-02-24T12:00:30.688Z,2212.00
2019-02-24T12:01:30.567Z,2256.00
2019-02-24T12:02:34.449Z,2340.00
2019-02-24T12:03:30.444Z,2444.00
2019-02-24T12:04:30.448Z,2708.00
2019-02-24T12:05:30.448Z,2716.00
2019-02-24T12:06:30.332Z,2532.00
2019-02-24T12:07:30.369Z,2600.00
2019-02-24T12:08:30.341Z,2660.00
2019-02-24T12:09:30.203Z,2644.00
2019-02-24T12:10:30.202Z,2504.00
2019-02-24T12:11:30.085Z,2716.00
2019-02-24T12:12:30.082Z,2732.00
2019-02-24T12:13:30.090Z,2612.00
2019-02-24T12:14:29.959Z,2732.00
2019-02-24T12:15:29.965Z,2632.00
2019-02-24T12:16:29.974Z,2672.00
2019-02-24T12:17:29.841Z,2720.00
2019-02-24T12:18:29.840Z,2664.00
2019-02-24T12:19:29.841Z,2636.00
2019-02-24T12:20:29.722Z,2792.00
2019-02-24T12:21:29.728Z,3056.00
2019-02-24T12:22:29.600Z,3144.00
2019-02-24T12:23:29.606Z,3192.00
2019-02-24T12:24:29.611Z,3192.00
2019-02-24T12:25:29.489Z,3188.00
2019-02-24T12:26:29.485Z,3508.00
2019-02-24T12:27:29.483Z,3728.00
2019-02-24T12:28:29.359Z,3728.00
2019-02-24T12:29:29.362Z,3564.00
2019-02-24T12:30:29.356Z,3680.00
2019-02-24T12:31:29.236Z,4108.00
2019-02-24T12:32:29.240Z,4236.00
2019-02-24T12:33:29.126Z,3952.00
2019-02-24T12:34:29.119Z,3740.00
2019-02-24T12:35:29.114Z,3656.00
2019-02-24T12:36:28.999Z,3480.00
2019-02-24T12:37:28.998Z,3380.00
2019-02-24T12:38:29.001Z,3288.00
2019-02-24T12:39:28.878Z,3300.00
2019-02-24T12:40:28.874Z,3344.00
2019-02-24T12:41:28.873Z,3712.00